Time;durP1;ratioP1;P1;durP2;ratioP2;P2;SDS_P1;SDS_P2;PMS_P1;PMS_P2;Temp;Humidity;BMP_temperature;BMP_pressure;BME280_temperature;BME280_humidity;BME280_pressure;Samples;Min_cycle;Max_cycle;Signal;HPM_P1;HPM_P2
2021/10/12 00:01:58;;;;;;;9.65;3.55;;;9.90;79.40;;;;;;5072292;28;20121;-78
2021/10/12 00:04:25;;;;;;;10.82;3.85;;;9.90;79.40;;;;;;5072346;28;20105;-78
2021/10/12 00:06:52;;;;;;;9.80;3.60;;;9.80;79.40;;;;;;5071766;28;20559;-78
2021/10/12 00:09:20;;;;;;;10.88;3.50;;;9.90;79.40;;;;;;5072241;28;20041;-78
2021/10/12 00:11:47;;;;;;;9.18;3.78;;;9.90;79.50;;;;;;5072099;28;20048;-78
2021/10/12 00:14:14;;;;;;;13.23;4.10;;;9.80;79.40;;;;;;5072677;28;20056;-78
2021/10/12 00:16:41;;;;;;;9.45;3.92;;;9.80;79.40;;;;;;5072049;28;20090;-78
2021/10/12 00:19:08;;;;;;;12.68;3.55;;;9.80;79.40;;;;;;5071547;28;20607;-78
2021/10/12 00:21:36;;;;;;;10.30;3.88;;;9.80;79.40;;;;;;5070871;28;20029;-78
2021/10/12 00:24:04;;;;;;;9.90;3.95;;;9.80;79.40;;;;;;5072041;28;20091;-78
2021/10/12 00:26:31;;;;;;;8.38;3.83;;;9.80;79.40;;;;;;5072345;28;20113;-78
2021/10/12 00:28:58;;;;;;;10.90;3.85;;;9.80;79.50;;;;;;5072027;28;20044;-78
2021/10/12 00:31:25;;;;;;;10.57;3.95;;;9.80;79.40;;;;;;5071647;28;20463;-78
2021/10/12 00:33:52;;;;;;;8.38;3.60;;;9.80;79.40;;;;;;5071214;28;20535;-78
2021/10/12 00:36:19;;;;;;;7.78;3.72;;;9.70;79.40;;;;;;5071777;28;20040;-78
2021/10/12 00:38:46;;;;;;;12.40;4.13;;;9.70;79.50;;;;;;5071779;28;20598;-77
2021/10/12 00:41:13;;;;;;;9.48;3.63;;;9.80;79.50;;;;;;5069999;28;20045;-78
2021/10/12 00:43:40;;;;;;;12.77;3.83;;;9.70;79.50;;;;;;5071433;28;20048;-78
2021/10/12 00:46:07;;;;;;;10.15;3.90;;;9.70;79.50;;;;;;5071490;28;20079;-78
2021/10/12 00:48:34;;;;;;;8.52;3.45;;;9.70;79.50;;;;;;5071086;28;20127;-78
2021/10/12 00:51:01;;;;;;;12.48;3.75;;;9.70;79.50;;;;;;5055503;28;20090;-78
2021/10/12 00:53:29;;;;;;;7.55;3.42;;;9.70;79.50;;;;;;5067510;28;20052;-78
2021/10/12 00:55:57;;;;;;;7.50;3.60;;;9.70;79.50;;;;;;5071276;28;20044;-78
2021/10/12 00:58:24;;;;;;;12.25;3.78;;;9.70;79.50;;;;;;5071240;28;20044;-78
2021/10/12 01:00:51;;;;;;;11.35;3.65;;;9.60;79.50;;;;;;5071156;28;20041;-78
2021/10/12 01:03:19;;;;;;;8.82;3.45;;;9.70;79.50;;;;;;5070890;28;20127;-78
2021/10/12 01:05:46;;;;;;;7.97;3.40;;;9.60;79.50;;;;;;5071249;28;20063;-78
2021/10/12 01:08:13;;;;;;;7.55;3.35;;;9.60;79.50;;;;;;5069533;28;20562;-78
2021/10/12 01:10:40;;;;;;;11.40;3.67;;;9.60;79.50;;;;;;5070866;28;20045;-78
2021/10/12 01:13:08;;;;;;;13.18;3.85;;;9.60;79.50;;;;;;5070623;28;20045;-78
2021/10/12 01:15:35;;;;;;;10.52;4.00;;;9.60;79.50;;;;;;5070929;28;20485;-78
2021/10/12 01:18:09;;;;;;;8.57;4.00;;;9.60;79.60;;;;;;5070652;28;20052;-78
2021/10/12 01:20:37;;;;;;;13.70;3.97;;;9.50;79.60;;;;;;5070964;28;20056;-78
2021/10/12 01:23:04;;;;;;;12.60;4.00;;;9.60;79.70;;;;;;5070087;28;20463;-78
2021/10/12 01:25:32;;;;;;;9.75;3.35;;;9.60;79.70;;;;;;5070553;28;20045;-78
2021/10/12 01:28:00;;;;;;;8.43;3.25;;;9.50;79.80;;;;;;5070695;28;20048;-78
2021/10/12 01:30:28;;;;;;;13.90;4.00;;;9.60;79.90;;;;;;5070743;28;20036;-78
2021/10/12 01:32:55;;;;;;;8.95;3.45;;;9.60;79.90;;;;;;5070045;28;20193;-78
2021/10/12 01:35:22;;;;;;;7.72;3.35;;;9.60;80.00;;;;;;5071240;28;20090;-78
2021/10/12 01:37:49;;;;;;;9.05;3.63;;;9.60;80.00;;;;;;5070421;28;20449;-78
2021/10/12 01:40:17;;;;;;;11.00;3.45;;;9.60;80.10;;;;;;5070609;28;20097;-78
2021/10/12 01:42:45;;;;;;;9.70;3.75;;;9.60;80.10;;;;;;5070506;28;20075;-78
2021/10/12 01:45:13;;;;;;;11.90;3.92;;;9.60;80.20;;;;;;5070353;28;20546;-78
2021/10/12 01:47:40;;;;;;;14.07;3.58;;;9.60;80.20;;;;;;5070331;28;20048;-78
2021/10/12 01:50:10;;;;;;;13.45;3.92;;;9.60;80.20;;;;;;5070811;28;20102;-78
2021/10/12 01:52:39;;;;;;;10.10;3.60;;;9.70;80.20;;;;;;5070188;28;20125;-78
2021/10/12 01:55:07;;;;;;;12.48;3.40;;;9.60;80.20;;;;;;5070208;28;20036;-78
2021/10/12 01:57:34;;;;;;;7.88;3.22;;;9.60;80.20;;;;;;5070500;28;20048;-78
2021/10/12 02:00:01;;;;;;;11.23;3.78;;;9.60;80.30;;;;;;5054500;28;20098;-78
2021/10/12 02:02:28;;;;;;;10.68;3.65;;;9.70;80.20;;;;;;5066266;28;20052;-78
2021/10/12 02:04:55;;;;;;;10.90;3.60;;;9.70;80.30;;;;;;5070209;28;20135;-78
2021/10/12 02:07:22;;;;;;;8.65;3.20;;;9.70;80.30;;;;;;5070199;28;20101;-78
2021/10/12 02:09:49;;;;;;;10.52;3.15;;;9.70;80.30;;;;;;5070111;28;20048;-78
2021/10/12 02:12:16;;;;;;;8.82;3.15;;;9.70;80.30;;;;;;5070166;28;20048;-78
2021/10/12 02:14:43;;;;;;;13.05;3.55;;;9.70;80.30;;;;;;5070329;28;20626;-78
2021/10/12 02:17:10;;;;;;;9.32;3.35;;;9.70;80.30;;;;;;5070216;28;20041;-78
2021/10/12 02:19:37;;;;;;;7.00;3.13;;;9.70;80.30;;;;;;5070053;28;20509;-78
2021/10/12 02:22:04;;;;;;;12.23;3.60;;;9.70;80.30;;;;;;5070049;28;20467;-78
2021/10/12 02:24:31;;;;;;;9.10;3.45;;;9.70;80.30;;;;;;5069901;28;20113;-78
2021/10/12 02:26:58;;;;;;;10.48;3.25;;;9.70;80.30;;;;;;5070082;28;20040;-78
2021/10/12 02:29:25;;;;;;;10.95;3.30;;;9.70;80.30;;;;;;5070589;28;20056;-78
2021/10/12 02:31:52;;;;;;;8.02;3.30;;;9.70;80.30;;;;;;5069424;28;20048;-78
2021/10/12 02:34:19;;;;;;;9.73;3.40;;;9.70;80.30;;;;;;5069787;28;20390;-78
2021/10/12 02:36:46;;;;;;;8.43;3.22;;;9.70;80.20;;;;;;5069880;28;20394;-78
2021/10/12 02:39:13;;;;;;;7.28;3.08;;;9.70;80.30;;;;;;5069997;28;20041;-78
2021/10/12 02:41:40;;;;;;;7.68;3.03;;;9.70;80.30;;;;;;5069955;28;20489;-78
2021/10/12 02:44:07;;;;;;;11.10;3.13;;;9.60;80.30;;;;;;5071374;28;20109;-77
2021/10/12 02:46:34;;;;;;;9.40;3.38;;;9.70;80.30;;;;;;5073836;28;20177;-78
2021/10/12 02:49:01;;;;;;;8.52;3.28;;;9.60;80.30;;;;;;5073699;28;20127;-78
2021/10/12 02:51:28;;;;;;;10.32;3.45;;;9.60;80.30;;;;;;5073707;28;20052;-78
2021/10/12 02:53:54;;;;;;;9.13;3.40;;;9.60;80.30;;;;;;5073641;28;20048;-78
2021/10/12 02:56:21;;;;;;;9.48;3.25;;;9.60;80.30;;;;;;5074097;28;20090;-78
2021/10/12 02:58:48;;;;;;;9.98;3.20;;;9.60;80.30;;;;;;5071846;28;20463;-78
2021/10/12 03:01:15;;;;;;;16.75;3.42;;;9.60;80.30;;;;;;5073390;28;20532;-78
2021/10/12 03:03:43;;;;;;;13.32;3.42;;;9.60;80.40;;;;;;5073334;28;20053;-78
2021/10/12 03:06:09;;;;;;;9.15;3.22;;;9.60;80.40;;;;;;5073569;28;20505;-78
2021/10/12 03:08:36;;;;;;;8.75;3.47;;;9.60;80.40;;;;;;5073409;28;20048;-78
2021/10/12 03:11:03;;;;;;;11.15;4.10;;;9.60;80.40;;;;;;5073525;28;20045;-78
2021/10/12 03:13:30;;;;;;;17.25;3.33;;;9.60;80.50;;;;;;5072783;28;20566;-78
2021/10/12 03:15:57;;;;;;;8.95;3.15;;;9.60;80.50;;;;;;5073252;28;20049;-78
2021/10/12 03:18:24;;;;;;;10.38;3.42;;;9.60;80.50;;;;;;5073164;28;20049;-78
2021/10/12 03:20:51;;;;;;;12.68;3.63;;;9.60;80.50;;;;;;5071866;28;20049;-78
2021/10/12 03:23:18;;;;;;;11.10;3.20;;;9.60;80.50;;;;;;5073717;28;20056;-78
2021/10/12 03:25:44;;;;;;;10.77;2.78;;;9.60;80.50;;;;;;5072813;28;20048;-78
2021/10/12 03:28:11;;;;;;;11.23;3.47;;;9.60;80.50;;;;;;5072728;28;20054;-78
2021/10/12 03:30:38;;;;;;;13.18;3.42;;;9.60;80.50;;;;;;5073048;28;20052;-78
2021/10/12 03:33:05;;;;;;;11.13;3.08;;;9.60;80.50;;;;;;5072738;28;20447;-78
2021/10/12 03:35:36;;;;;;;9.20;3.17;;;9.60;80.50;;;;;;5073277;28;20622;-78
2021/10/12 03:38:03;;;;;;;8.77;3.20;;;9.50;80.50;;;;;;5073023;28;20106;-78
2021/10/12 03:40:31;;;;;;;9.85;2.90;;;9.50;80.50;;;;;;5072672;28;20406;-78
2021/10/12 03:42:58;;;;;;;11.65;3.55;;;9.50;80.50;;;;;;5072362;28;20048;-78
2021/10/12 03:45:25;;;;;;;9.68;3.45;;;9.50;80.50;;;;;;5072690;28;20090;-78
2021/10/12 03:47:51;;;;;;;10.27;3.42;;;9.50;80.50;;;;;;5072648;28;20068;-78
2021/10/12 03:50:18;;;;;;;12.50;2.80;;;9.50;80.50;;;;;;5073177;28;20052;-78
2021/10/12 03:52:45;;;;;;;8.93;3.30;;;9.50;80.60;;;;;;5072443;28;20083;-78
2021/10/12 03:55:14;;;;;;;9.82;3.30;;;9.50;80.60;;;;;;5072345;28;20044;-78
2021/10/12 03:57:41;;;;;;;14.15;3.35;;;9.50;80.60;;;;;;5072023;28;20435;-78
2021/10/12 04:00:08;;;;;;;13.32;3.58;;;9.50;80.60;;;;;;5072490;28;20044;-78
2021/10/12 04:02:35;;;;;;;9.80;3.25;;;9.50;80.60;;;;;;5072653;28;20053;-78
2021/10/12 04:05:02;;;;;;;7.03;2.95;;;9.50;80.70;;;;;;5072652;28;20052;-78
2021/10/12 04:07:29;;;;;;;10.07;3.20;;;9.50;80.70;;;;;;5072282;28;20045;-78
2021/10/12 04:09:56;;;;;;;13.52;3.20;;;9.40;80.80;;;;;;5072158;28;20101;-78
2021/10/12 04:12:23;;;;;;;12.23;3.58;;;9.50;80.80;;;;;;5071879;28;20086;-78
2021/10/12 04:14:50;;;;;;;12.85;3.35;;;9.50;80.80;;;;;;5072103;28;20497;-78
2021/10/12 04:17:17;;;;;;;13.65;3.65;;;9.50;80.80;;;;;;5072717;28;20094;-78
2021/10/12 04:19:44;;;;;;;9.70;3.22;;;9.50;80.90;;;;;;5071878;28;20509;-78
2021/10/12 04:22:11;;;;;;;9.65;3.30;;;9.50;80.90;;;;;;5071838;28;20456;-78
2021/10/12 04:24:39;;;;;;;7.50;2.90;;;9.40;81.00;;;;;;5071795;28;20060;-78
2021/10/12 04:27:06;;;;;;;12.75;3.83;;;9.50;81.00;;;;;;5071575;28;20153;-78
2021/10/12 04:29:33;;;;;;;15.60;3.60;;;9.50;81.00;;;;;;5072253;28;20100;-78
2021/10/12 04:32:01;;;;;;;12.65;3.10;;;9.50;81.10;;;;;;5071757;28;20059;-78
2021/10/12 04:34:28;;;;;;;9.15;3.58;;;9.50;81.20;;;;;;5070337;28;20497;-78
2021/10/12 04:36:56;;;;;;;12.02;4.28;;;9.50;81.20;;;;;;5071653;28;20505;-78
2021/10/12 04:39:23;;;;;;;7.57;3.30;;;9.50;81.20;;;;;;5071741;28;20117;-78
2021/10/12 04:41:50;;;;;;;10.93;3.42;;;9.50;81.30;;;;;;5071317;28;20106;-78
2021/10/12 04:44:17;;;;;;;11.73;3.30;;;9.50;81.30;;;;;;5072151;28;20052;-78
2021/10/12 04:46:44;;;;;;;10.60;3.47;;;9.60;81.40;;;;;;5071565;28;20060;-78
2021/10/12 04:49:12;;;;;;;9.80;3.20;;;9.60;81.40;;;;;;5071301;28;20443;-78
2021/10/12 04:51:39;;;;;;;11.10;4.00;;;9.60;81.40;;;;;;5071208;28;20060;-78
2021/10/12 04:54:06;;;;;;;12.93;2.92;;;9.60;81.40;;;;;;5071385;28;20101;-78
2021/10/12 04:56:33;;;;;;;10.60;3.70;;;9.60;81.50;;;;;;5071240;28;20551;-78
2021/10/12 04:59:00;;;;;;;12.18;3.58;;;9.60;81.50;;;;;;5070033;28;20106;-78
2021/10/12 05:01:27;;;;;;;12.10;4.15;;;9.60;81.50;;;;;;5071115;28;20049;-78
2021/10/12 05:03:54;;;;;;;9.68;3.60;;;9.70;81.50;;;;;;5071123;28;20067;-78
2021/10/12 05:06:21;;;;;;;10.88;3.50;;;9.70;81.50;;;;;;5070589;28;20052;-78
2021/10/12 05:08:48;;;;;;;10.02;3.55;;;9.70;81.50;;;;;;5071040;28;20398;-78
2021/10/12 05:11:15;;;;;;;10.60;4.18;;;9.70;81.50;;;;;;5071251;28;20097;-78
2021/10/12 05:13:42;;;;;;;17.10;4.30;;;9.70;81.50;;;;;;5070845;28;20044;-78
2021/10/12 05:16:13;;;;;;;12.40;4.13;;;9.70;81.50;;;;;;5070897;28;20048;-78
2021/10/12 05:18:43;;;;;;;13.00;4.47;;;9.70;81.50;;;;;;5070798;28;20040;-78
2021/10/12 05:21:10;;;;;;;11.68;4.45;;;9.70;81.50;;;;;;5070743;28;20607;-78
2021/10/12 05:23:37;;;;;;;13.65;5.00;;;9.80;81.60;;;;;;5070826;28;20101;-78
2021/10/12 05:26:05;;;;;;;13.52;4.63;;;9.70;81.60;;;;;;5070130;28;20056;-78
2021/10/12 05:28:35;;;;;;;12.25;5.20;;;9.80;81.60;;;;;;5070721;28;20042;-78
2021/10/12 05:31:03;;;;;;;13.02;4.75;;;9.80;81.60;;;;;;5070572;28;20044;-78
2021/10/12 05:33:30;;;;;;;10.00;4.40;;;9.80;81.60;;;;;;5070723;28;20049;-78
2021/10/12 05:35:57;;;;;;;14.70;4.55;;;9.80;81.60;;;;;;5070714;28;20048;-78
2021/10/12 05:38:24;;;;;;;10.48;4.90;;;9.80;81.60;;;;;;5070805;28;20094;-77
2021/10/12 05:40:51;;;;;;;13.90;4.97;;;9.70;81.60;;;;;;5070478;28;20052;-78
2021/10/12 05:43:18;;;;;;;13.60;5.25;;;9.80;81.60;;;;;;5070438;28;20463;-78
2021/10/12 05:45:45;;;;;;;15.93;5.82;;;9.80;81.60;;;;;;5070403;28;20099;-78
2021/10/12 05:48:12;;;;;;;15.57;5.32;;;9.80;81.60;;;;;;5070625;28;20047;-78
2021/10/12 05:50:44;;;;;;;17.83;5.53;;;9.80;81.70;;;;;;5070597;28;20048;-78
2021/10/12 05:58:12;;;;;;;13.60;5.97;;;9.70;81.70;;;;;;5070388;28;20099;-78
2021/10/12 06:00:39;;;;;;;12.73;5.63;;;9.70;81.70;;;;;;5070217;28;20105;-78
2021/10/12 06:03:06;;;;;;;15.35;6.40;;;9.70;81.70;;;;;;5070392;28;20059;-78
2021/10/12 06:05:34;;;;;;;14.85;6.63;;;9.70;81.70;;;;;;5070694;28;20112;-78
2021/10/12 06:08:01;;;;;;;14.43;6.10;;;9.70;81.80;;;;;;5069984;28;20109;-78
2021/10/12 06:10:29;;;;;;;14.40;6.55;;;9.70;81.80;;;;;;5070192;28;20052;-78
2021/10/12 06:12:56;;;;;;;15.43;6.90;;;9.70;81.80;;;;;;5070210;28;20074;-78
2021/10/12 06:15:23;;;;;;;14.13;6.40;;;9.70;81.80;;;;;;5070279;28;20041;-78
2021/10/12 06:17:50;;;;;;;14.95;7.53;;;9.70;81.80;;;;;;5070231;28;20117;-78
2021/10/12 06:20:17;;;;;;;17.50;7.57;;;9.70;81.90;;;;;;5074169;28;20049;-78
2021/10/12 06:22:44;;;;;;;17.75;7.05;;;9.70;81.90;;;;;;5073918;28;20048;-78
2021/10/12 06:25:11;;;;;;;14.13;7.57;;;9.70;81.90;;;;;;5073899;28;20052;-78
2021/10/12 06:27:38;;;;;;;20.00;8.07;;;9.80;81.90;;;;;;5073018;28;20102;-78
2021/10/12 06:30:05;;;;;;;20.15;8.38;;;9.80;82.00;;;;;;5074263;28;20094;-78
2021/10/12 06:32:32;;;;;;;14.48;7.90;;;9.80;82.00;;;;;;5074462;28;20048;-78
2021/10/12 06:34:59;;;;;;;20.67;8.45;;;9.80;82.10;;;;;;5073847;28;20622;-78
2021/10/12 06:37:26;;;;;;;15.57;7.75;;;9.80;82.10;;;;;;5073667;28;20102;-78
2021/10/12 06:39:53;;;;;;;16.50;7.97;;;9.80;82.10;;;;;;5073927;28;20057;-78
2021/10/12 06:42:19;;;;;;;17.25;8.40;;;9.80;82.20;;;;;;5074054;28;20044;-78
2021/10/12 06:44:46;;;;;;;18.42;8.85;;;9.80;82.20;;;;;;5073993;28;20448;-78
2021/10/12 06:47:13;;;;;;;17.80;8.43;;;9.80;82.20;;;;;;5071677;28;20463;-78
2021/10/12 06:49:40;;;;;;;19.95;9.20;;;9.80;82.30;;;;;;5076937;28;20509;-79
2021/10/12 06:52:07;;;;;;;17.85;8.82;;;9.80;82.30;;;;;;5075881;28;20098;-80
2021/10/12 06:54:34;;;;;;;19.70;8.90;;;9.80;82.30;;;;;;5073806;28;20105;-80
2021/10/12 06:57:02;;;;;;;13.40;8.85;;;9.80;82.40;;;;;;5068828;28;20040;-80
2021/10/12 06:59:29;;;;;;;18.98;9.77;;;9.90;82.40;;;;;;5086034;28;20394;-79
2021/10/12 07:01:56;;;;;;;20.02;9.40;;;9.90;82.40;;;;;;5074441;28;20087;-78
2021/10/12 07:04:23;;;;;;;17.38;9.18;;;9.90;82.50;;;;;;5073844;28;20501;-78
2021/10/12 07:06:50;;;;;;;18.08;9.20;;;9.90;82.50;;;;;;5073590;28;20485;-78
2021/10/12 07:09:17;;;;;;;16.25;8.90;;;9.90;82.50;;;;;;5071677;28;20045;-78
2021/10/12 07:11:44;;;;;;;17.13;9.63;;;9.90;82.50;;;;;;5073985;28;20504;-78
2021/10/12 07:14:13;;;;;;;20.15;9.70;;;9.90;82.60;;;;;;5076039;28;20054;-79
2021/10/12 07:16:41;;;;;;;16.83;9.32;;;9.90;82.60;;;;;;5073821;28;20504;-78
2021/10/12 07:19:08;;;;;;;18.70;9.52;;;9.90;82.60;;;;;;5071911;28;20076;-78
2021/10/12 07:21:35;;;;;;;20.23;9.45;;;9.90;82.60;;;;;;5075519;28;20048;-78
2021/10/12 07:24:02;;;;;;;17.02;8.98;;;9.90;82.70;;;;;;5069789;28;20106;-78
2021/10/12 07:26:29;;;;;;;15.63;8.57;;;9.90;82.70;;;;;;5071214;28;20060;-78
2021/10/12 07:28:58;;;;;;;19.77;9.77;;;10.00;82.70;;;;;;5074014;28;20048;-78
2021/10/12 07:31:26;;;;;;;17.70;8.93;;;10.00;82.70;;;;;;5074186;28;20497;-78
2021/10/12 07:33:52;;;;;;;23.25;9.52;;;9.90;82.70;;;;;;5074197;28;20048;-78
2021/10/12 07:36:19;;;;;;;15.82;9.32;;;10.00;82.80;;;;;;5072438;28;20049;-78
2021/10/12 07:38:46;;;;;;;21.45;9.15;;;10.00;82.80;;;;;;5073962;28;20102;-79
2021/10/12 07:41:26;;;;;;;20.48;9.13;;;10.00;82.80;;;;;;5078748;28;20134;-79
2021/10/12 07:43:53;;;;;;;14.23;8.23;;;10.00;82.80;;;;;;5074351;28;20110;-78
2021/10/12 07:46:20;;;;;;;18.92;8.80;;;10.00;82.90;;;;;;5074687;28;20048;-78
2021/10/12 07:48:47;;;;;;;20.60;9.05;;;10.00;82.90;;;;;;5073886;28;20051;-78
2021/10/12 07:51:34;;;;;;;19.23;8.25;;;10.10;83.00;;;;;;5074529;28;20075;-78
2021/10/12 07:54:02;;;;;;;16.85;9.32;;;10.20;83.00;;;;;;5069824;28;20048;-78
2021/10/12 07:56:38;;;;;;;19.08;9.23;;;10.20;83.10;;;;;;5086363;28;20080;-79
2021/10/12 07:59:07;;;;;;;21.30;8.75;;;10.20;83.10;;;;;;5077066;28;20044;-78
2021/10/12 08:01:35;;;;;;;23.27;8.98;;;10.20;83.20;;;;;;5073659;28;20455;-79
2021/10/12 08:04:07;;;;;;;16.92;8.93;;;10.30;83.20;;;;;;5073707;28;20049;-78
2021/10/12 08:06:34;;;;;;;16.58;9.35;;;10.30;83.30;;;;;;5073384;28;20044;-79
2021/10/12 08:09:01;;;;;;;19.05;9.30;;;10.30;83.30;;;;;;5053453;28;20444;-78
2021/10/12 08:11:28;;;;;;;24.13;9.38;;;10.40;83.30;;;;;;5085453;28;20056;-78
2021/10/12 08:14:00;;;;;;;23.23;8.65;;;10.40;83.30;;;;;;5073941;28;20506;-79
2021/10/12 08:16:30;;;;;;;17.48;7.88;;;10.40;83.30;;;;;;5073506;28;20052;-78
2021/10/12 08:18:59;;;;;;;20.23;8.65;;;10.50;83.30;;;;;;5073761;28;20044;-79
2021/10/12 08:21:28;;;;;;;15.95;7.68;;;10.50;83.30;;;;;;5072676;28;20040;-79
2021/10/12 08:23:57;;;;;;;12.68;7.65;;;10.60;83.40;;;;;;5070794;28;20110;-79
2021/10/12 08:26:24;;;;;;;20.50;9.23;;;10.60;83.40;;;;;;5077391;28;20057;-79
2021/10/12 08:28:51;;;;;;;17.00;7.75;;;10.70;83.40;;;;;;5073679;28;20052;-78
2021/10/12 08:31:18;;;;;;;15.13;7.35;;;10.70;83.40;;;;;;5073199;28;20052;-79
2021/10/12 08:33:46;;;;;;;16.85;7.68;;;10.80;83.40;;;;;;5073190;28;20123;-79
2021/10/12 08:36:14;;;;;;;18.60;7.97;;;10.90;83.40;;;;;;5070810;28;20573;-79
2021/10/12 08:39:01;;;;;;;16.70;6.75;;;10.90;83.40;;;;;;5053699;28;20135;-79
2021/10/12 08:41:30;;;;;;;19.08;7.25;;;10.90;83.40;;;;;;5084289;28;20048;-79
2021/10/12 08:43:58;;;;;;;21.27;7.60;;;10.90;83.30;;;;;;5072511;28;20493;-79
2021/10/12 08:46:26;;;;;;;17.20;7.50;;;11.00;83.30;;;;;;5074612;28;20070;-79
2021/10/12 08:48:58;;;;;;;21.73;7.03;;;11.10;83.40;;;;;;5072910;28;20040;-80
2021/10/12 08:51:26;;;;;;;15.23;6.75;;;11.10;83.30;;;;;;5072063;28;20059;-80
2021/10/12 08:53:54;;;;;;;15.68;7.30;;;11.20;83.30;;;;;;5070580;28;20045;-80
2021/10/12 08:56:21;;;;;;;14.88;6.45;;;11.20;83.20;;;;;;5092196;28;20056;-78
2021/10/12 08:58:48;;;;;;;16.73;6.38;;;11.30;83.20;;;;;;5073203;28;20052;-80
2021/10/12 09:01:17;;;;;;;17.63;6.07;;;11.40;83.10;;;;;;5072094;28;20505;-79
2021/10/12 09:06:29;;;;;;;12.63;6.53;;;11.40;83.00;;;;;;5070631;28;20053;-79
2021/10/12 09:09:16;;;;;;;19.13;6.07;;;11.50;83.00;;;;;;5054306;28;20055;-79
2021/10/12 09:11:45;;;;;;;14.55;6.00;;;11.50;82.90;;;;;;5073217;28;20051;-79
2021/10/12 09:14:12;;;;;;;16.42;6.10;;;11.50;82.90;;;;;;5074858;28;20105;-78
2021/10/12 09:16:44;;;;;;;14.95;5.82;;;11.60;82.90;;;;;;5072473;28;20114;-79
2021/10/12 09:19:13;;;;;;;15.57;5.90;;;11.70;82.80;;;;;;5072925;28;20117;-79
2021/10/12 09:21:46;;;;;;;12.88;5.35;;;11.70;82.80;;;;;;5072782;28;20058;-79
2021/10/12 09:24:19;;;;;;;13.38;5.40;;;11.70;82.70;;;;;;5070990;28;20101;-79
2021/10/12 09:27:10;;;;;;;20.02;6.10;;;11.80;82.70;;;;;;5072655;28;20048;-78
2021/10/12 09:29:56;;;;;;;10.32;5.10;;;11.90;82.60;;;;;;5084346;28;20568;-80
2021/10/12 09:32:33;;;;;;;14.73;5.30;;;11.90;82.60;;;;;;5076097;28;20472;-79
2021/10/12 09:35:01;;;;;;;11.25;5.40;;;12.00;82.50;;;;;;5072294;28;20055;-79
2021/10/12 09:37:28;;;;;;;12.32;5.20;;;12.00;82.40;;;;;;5072023;28;20459;-79
2021/10/12 09:39:56;;;;;;;12.57;5.00;;;12.10;82.40;;;;;;5072333;28;20052;-78
2021/10/12 09:42:23;;;;;;;14.57;4.95;;;12.10;82.30;;;;;;5071223;28;20060;-79
2021/10/12 09:44:54;;;;;;;13.32;5.13;;;12.20;82.30;;;;;;5069201;28;20048;-78
2021/10/12 09:47:24;;;;;;;17.42;5.15;;;12.20;82.20;;;;;;5075599;28;20109;-79
2021/10/12 09:50:13;;;;;;;10.27;4.22;;;12.30;82.20;;;;;;5072103;28;20044;-79
2021/10/12 09:52:45;;;;;;;11.43;4.53;;;12.40;82.10;;;;;;5072847;28;20052;-79
2021/10/12 09:55:18;;;;;;;10.55;4.35;;;12.40;82.00;;;;;;5072319;28;20527;-79
2021/10/12 09:57:46;;;;;;;13.18;5.25;;;12.40;81.90;;;;;;5072293;28;20044;-79
2021/10/12 10:00:13;;;;;;;13.13;4.20;;;12.40;81.80;;;;;;5068729;28;20041;-79
2021/10/12 10:02:41;;;;;;;10.68;4.18;;;12.50;81.80;;;;;;5073082;28;20048;-79
2021/10/12 10:05:09;;;;;;;12.85;4.60;;;12.50;81.70;;;;;;5075528;28;20060;-79
2021/10/12 10:07:41;;;;;;;16.30;4.35;;;12.60;81.60;;;;;;5071784;28;20406;-79
2021/10/12 10:10:10;;;;;;;;;;;12.60;81.60;;;;;;5072483;28;20044;-79
2021/10/12 10:12:37;;;;;;;14.73;4.57;;;12.60;81.50;;;;;;5072024;28;19999;-79
2021/10/12 10:15:04;;;;;;;14.77;5.20;;;12.70;81.50;;;;;;5067134;28;20044;-79
2021/10/12 10:17:31;;;;;;;15.60;4.85;;;12.70;81.40;;;;;;5075986;28;20469;-79
2021/10/12 10:20:02;;;;;;;11.70;4.53;;;12.80;81.40;;;;;;5071509;28;20109;-79
2021/10/12 10:22:47;;;;;;;18.90;5.20;;;12.80;81.40;;;;;;5072094;28;20041;-79
2021/10/12 10:25:34;;;;;;;12.32;4.38;;;12.90;81.40;;;;;;5071702;28;20051;-79
2021/10/12 10:28:16;;;;;;;14.85;4.70;;;13.00;81.40;;;;;;5071529;28;20536;-79
2021/10/12 10:30:47;;;;;;;12.15;4.47;;;13.10;81.30;;;;;;5071370;28;20463;-79
2021/10/12 10:33:29;;;;;;;14.35;4.30;;;13.20;81.30;;;;;;5070113;28;20098;-79
2021/10/12 10:35:58;;;;;;;14.52;4.72;;;13.40;81.20;;;;;;5068994;28;20453;-79
2021/10/12 10:38:32;;;;;;;14.48;4.53;;;13.40;81.00;;;;;;5075397;28;20084;-79
2021/10/12 10:41:05;;;;;;;;;;;13.60;80.90;;;;;;5074638;28;20505;-79
2021/10/12 10:43:54;;;;;;;10.50;3.80;;;13.70;80.70;;;;;;5073094;28;19920;-79
2021/10/12 10:46:33;;;;;;;14.02;4.50;;;13.80;80.40;;;;;;5071291;28;20524;-79
2021/10/12 10:49:15;;;;;;;15.45;4.32;;;13.90;80.20;;;;;;5071692;28;20040;-79
2021/10/12 10:51:51;;;;;;;17.42;4.30;;;14.00;80.00;;;;;;5071298;28;20059;-79
2021/10/12 10:54:36;;;;;;;12.70;4.00;;;14.00;79.90;;;;;;5069447;28;20094;-79
2021/10/12 10:57:09;;;;;;;12.50;3.97;;;14.20;79.70;;;;;;5051471;28;20041;-79
2021/10/12 10:59:36;;;;;;;12.48;3.92;;;14.20;79.40;;;;;;5073496;28;20106;-79
2021/10/12 11:02:23;;;;;;;13.30;3.72;;;14.30;79.30;;;;;;5072916;28;20056;-79
2021/10/12 11:04:51;;;;;;;10.88;3.72;;;14.40;79.10;;;;;;5072366;28;20416;-79
2021/10/12 11:07:24;;;;;;;13.55;3.50;;;14.40;79.00;;;;;;5074945;28;20040;-79
2021/10/12 11:09:52;;;;;;;12.65;3.60;;;14.50;78.80;;;;;;5075258;28;20097;-79
2021/10/12 11:12:27;;;;;;;13.30;3.63;;;14.60;78.70;;;;;;5072635;28;20817;-79
2021/10/12 11:15:04;;;;;;;18.27;4.00;;;14.70;78.50;;;;;;5072617;28;20045;-79
2021/10/12 11:17:31;;;;;;;9.70;3.17;;;14.80;78.40;;;;;;5087281;28;20101;-79
2021/10/12 11:20:02;;;;;;;14.27;3.40;;;14.90;78.10;;;;;;5075669;28;20045;-79
2021/10/12 11:22:29;;;;;;;12.98;3.45;;;14.90;77.80;;;;;;5076021;28;20056;-79
2021/10/12 11:24:57;;;;;;;13.10;4.07;;;15.00;77.60;;;;;;5074605;28;20457;-79
2021/10/12 11:27:45;;;;;;;14.68;3.67;;;15.00;77.40;;;;;;5074707;28;20101;-79
2021/10/12 11:30:16;;;;;;;13.68;4.30;;;15.10;77.20;;;;;;5071473;28;20037;-81
2021/10/12 11:32:54;;;;;;;12.60;3.15;;;15.20;77.10;;;;;;5075231;28;20110;-81
2021/10/12 11:35:37;;;;;;;11.23;3.38;;;15.30;76.90;;;;;;5077856;28;20078;-80
2021/10/12 11:38:06;;;;;;;12.60;3.30;;;15.40;76.80;;;;;;5075225;28;20060;-79
2021/10/12 11:40:35;;;;;;;12.63;3.47;;;15.40;76.70;;;;;;5074848;28;20126;-79
2021/10/12 11:43:04;;;;;;;9.57;3.08;;;15.50;76.50;;;;;;5074609;28;20044;-80
2021/10/12 11:45:32;;;;;;;10.50;3.50;;;15.60;76.40;;;;;;5073879;28;20436;-80
2021/10/12 11:47:59;;;;;;;11.35;3.17;;;15.70;76.20;;;;;;5070772;28;20045;-79
2021/10/12 11:50:26;;;;;;;9.00;2.85;;;15.80;76.10;;;;;;5078528;28;20045;-79
2021/10/12 11:52:55;;;;;;;14.52;3.42;;;15.90;75.90;;;;;;5075989;28;20052;-79
2021/10/12 11:55:26;;;;;;;14.15;3.92;;;15.90;75.70;;;;;;5074265;28;20057;-79
2021/10/12 11:57:53;;;;;;;11.15;3.25;;;15.90;75.40;;;;;;5074546;28;20047;-80
2021/10/12 12:00:39;;;;;;;10.75;3.03;;;15.90;75.10;;;;;;5074259;28;20052;-80
2021/10/12 12:03:18;;;;;;;10.93;3.40;;;16.00;74.80;;;;;;5055048;28;20045;-80
2021/10/12 12:05:53;;;;;;;10.55;3.30;;;16.10;74.60;;;;;;5074084;28;20083;-79
2021/10/12 12:08:21;;;;;;;7.15;2.58;;;16.00;74.50;;;;;;5077377;28;20421;-79
2021/10/12 12:10:49;;;;;;;8.55;2.90;;;16.10;74.30;;;;;;5073701;28;20098;-79
2021/10/12 12:13:16;;;;;;;11.93;2.97;;;16.10;74.20;;;;;;5073708;28;20044;-79
2021/10/12 12:15:44;;;;;;;6.97;3.00;;;16.10;74.10;;;;;;5073139;28;20101;-79
2021/10/12 12:18:16;;;;;;;10.45;3.45;;;16.10;73.90;;;;;;5070597;28;20048;-79
2021/10/12 12:21:01;;;;;;;7.00;2.75;;;16.10;73.80;;;;;;5073979;28;21166;-80
2021/10/12 12:23:29;;;;;;;12.55;3.05;;;16.10;73.80;;;;;;5089671;28;20504;-79
2021/10/12 12:25:57;;;;;;;20.23;3.42;;;16.10;73.70;;;;;;5073412;28;20106;-79
2021/10/12 12:28:24;;;;;;;9.48;3.30;;;16.00;73.70;;;;;;5073389;28;20059;-79
2021/10/12 12:30:51;;;;;;;8.77;3.33;;;16.00;73.60;;;;;;5073623;28;20564;-80
2021/10/12 12:33:18;;;;;;;10.57;2.80;;;16.00;73.50;;;;;;5071560;28;20045;-80
2021/10/12 12:35:50;;;;;;;9.23;2.47;;;15.90;73.50;;;;;;5073154;28;20102;-80
2021/10/12 12:38:44;;;;;;;10.27;3.13;;;16.00;73.50;;;;;;5075080;28;20079;-80
2021/10/12 12:41:25;;;;;;;9.13;2.90;;;15.90;73.50;;;;;;5073636;28;20048;-80
2021/10/12 12:43:57;;;;;;;11.13;2.60;;;15.90;73.60;;;;;;5073141;28;20052;-80
2021/10/12 12:46:26;;;;;;;8.88;2.40;;;15.90;73.60;;;;;;5073369;28;20079;-79
2021/10/12 12:49:14;;;;;;;13.52;2.85;;;15.90;73.70;;;;;;5073348;28;20048;-80
2021/10/12 12:51:46;;;;;;;7.22;2.28;;;15.90;73.70;;;;;;5073174;28;20040;-80
2021/10/12 12:54:44;;;;;;;10.77;2.65;;;15.90;73.70;;;;;;5070702;28;20132;-80
2021/10/12 12:57:19;;;;;;;8.85;2.45;;;15.90;73.70;;;;;;5055194;28;20056;-79
2021/10/12 13:00:05;;;;;;;11.25;2.47;;;15.90;73.70;;;;;;5072854;28;20386;-79
2021/10/12 13:02:32;;;;;;;8.15;2.55;;;16.00;73.60;;;;;;5085338;28;20056;-79
2021/10/12 13:04:59;;;;;;;11.57;2.90;;;16.00;73.60;;;;;;5072414;28;20052;-79